sensor_id;sensor_type;location;lat;lon;timestamp;P1;P4;P2;P0;N10;N4;N25;N1;N05;TS
79466;SPS30;68933;49.726;9.226;2023-04-01T00:00:10;1.8;;1.4;1;;;;;;
79466;SPS30;68933;49.726;9.226;2023-04-01T00:02:23;3.9;;3.2;2.4;;;;;;
79466;SPS30;68933;49.726;9.226;2023-04-01T00:04:36;3.9;;3.2;2.4;;;;;;
79466;SPS30;68933;49.726;9.226;2023-04-01T00:06:49;1.1;;0.9;0.7;;;;;;
79466;SPS30;68933;49.726;9.226;2023-04-01T00:09:02;1.1;;0.9;0.7;;;;;;
79466;SPS30;68933;49.726;9.226;2023-04-01T00:11:15;4.7;;3.8;2.9;;;;;;
79466;SPS30;68933;49.726;9.226;2023-04-01T00:13:28;4.7;;3.8;2.9;;;;;;
79466;SPS30;68933;49.726;9.226;2023-04-01T00:15:41;1.6;;1.3;1;;;;;;
79466;SPS30;68933;49.726;9.226;2023-04-01T00:17:54;1.6;;1.3;1;;;;;;
79466;SPS30;68933;49.726;9.226;2023-04-01T00:20:07;1.6;;1.3;1;;;;;;
79466;SPS30;68933;49.726;9.226;2023-04-01T00:22:20;1.6;;1.3;1;;;;;;
79466;SPS30;68933;49.726;9.226;2023-04-01T00:24:33;1.6;;1.3;1;;;;;;
79466;SPS30;68933;49.726;9.226;2023-04-01T00:26:46;2;;1.5;1.1;;;;;;
79466;SPS30;68933;49.726;9.226;2023-04-01T00:28:59;2;;1.5;1.1;;;;;;
79466;SPS30;68933;49.726;9.226;2023-04-01T00:31:13;2.6;;2.1;1.6;;;;;;
79466;SPS30;68933;49.726;9.226;2023-04-01T00:33:25;2.6;;2.1;1.6;;;;;;
79466;SPS30;68933;49.726;9.226;2023-04-01T00:35:39;1.2;;0.9;0.7;;;;;;
79466;SPS30;68933;49.726;9.226;2023-04-01T00:37:51;1.2;;0.9;0.7;;;;;;
79466;SPS30;68933;49.726;9.226;2023-04-01T00:40:19;1.2;;0.9;0.7;;;;;;
79466;SPS30;68933;49.726;9.226;2023-04-01T00:42:17;1.4;;1.1;0.8;;;;;;
79466;SPS30;68933;49.726;9.226;2023-04-01T00:44:31;1.4;;1.1;0.8;;;;;;
79466;SPS30;68933;49.726;9.226;2023-04-01T00:46:43;1.9;;1.4;1.1;;;;;;
79466;SPS30;68933;49.726;9.226;2023-04-01T00:48:56;1.9;;1.4;1.1;;;;;;
79466;SPS30;68933;49.726;9.226;2023-04-01T00:51:10;1.8;;1.4;1;;;;;;
79466;SPS30;68933;49.726;9.226;2023-04-01T00:53:22;1.8;;1.4;1;;;;;;
79466;SPS30;68933;49.726;9.226;2023-04-01T00:55:35;1.3;;1;0.8;;;;;;
79466;SPS30;68933;49.726;9.226;2023-04-01T00:57:48;1.3;;1;0.8;;;;;;
79466;SPS30;68933;49.726;9.226;2023-04-01T01:00:03;1.8;;1.4;1;;;;;;
79466;SPS30;68933;49.726;9.226;2023-04-01T01:02:14;1.8;;1.4;1;;;;;;
79466;SPS30;68933;49.726;9.226;2023-04-01T01:04:28;1.8;;1.4;1;;;;;;
79466;SPS30;68933;49.726;9.226;2023-04-01T01:06:43;1.9;;1.5;1.1;;;;;;
79466;SPS30;68933;49.726;9.226;2023-04-01T01:09:00;1.9;;1.5;1.1;;;;;;
79466;SPS30;68933;49.726;9.226;2023-04-01T01:11:06;1.9;;1.5;1.1;;;;;;
79466;SPS30;68933;49.726;9.226;2023-04-01T01:13:21;1.9;;1.5;1.1;;;;;;
79466;SPS30;68933;49.726;9.226;2023-04-01T01:15:33;1.4;;1.1;0.8;;;;;;
79466;SPS30;68933;49.726;9.226;2023-04-01T01:17:48;1.4;;1.1;0.8;;;;;;
79466;SPS30;68933;49.726;9.226;2023-04-01T01:20:05;1.9;;1.5;1.1;;;;;;
79466;SPS30;68933;49.726;9.226;2023-04-01T01:22:16;1.9;;1.5;1.1;;;;;;
79466;SPS30;68933;49.726;9.226;2023-04-01T01:24:27;1.9;;1.5;1.1;;;;;;
79466;SPS30;68933;49.726;9.226;2023-04-01T01:26:40;2.1;;1.6;1.2;;;;;;
79466;SPS30;68933;49.726;9.226;2023-04-01T01:28:51;2.1;;1.6;1.2;;;;;;
79466;SPS30;68933;49.726;9.226;2023-04-01T01:31:03;1.1;;0.8;0.6;;;;;;
79466;SPS30;68933;49.726;9.226;2023-04-01T01:33:19;1.1;;0.8;0.6;;;;;;
79466;SPS30;68933;49.726;9.226;2023-04-01T01:35:30;1.3;;1;0.7;;;;;;
79466;SPS30;68933;49.726;9.226;2023-04-01T01:37:42;1.3;;1;0.7;;;;;;
79466;SPS30;68933;49.726;9.226;2023-04-01T01:39:56;1.3;;1;0.7;;;;;;
79466;SPS30;68933;49.726;9.226;2023-04-01T01:42:09;1.3;;1;0.7;;;;;;
79466;SPS30;68933;49.726;9.226;2023-04-01T01:44:21;2.1;;1.6;1.2;;;;;;
79466;SPS30;68933;49.726;9.226;2023-04-01T01:46:34;2.1;;1.6;1.2;;;;;;
79466;SPS30;68933;49.726;9.226;2023-04-01T01:48:47;1.3;;1.1;0.8;;;;;;
79466;SPS30;68933;49.726;9.226;2023-04-01T01:51:00;1.3;;1.1;0.8;;;;;;
79466;SPS30;68933;49.726;9.226;2023-04-01T01:53:13;1.3;;1.1;0.8;;;;;;
79466;SPS30;68933;49.726;9.226;2023-04-01T01:55:28;1.8;;1.4;1;;;;;;
79466;SPS30;68933;49.726;9.226;2023-04-01T01:57:39;1.8;;1.4;1;;;;;;
79466;SPS30;68933;49.726;9.226;2023-04-01T01:59:52;1.3;;1;0.7;;;;;;
79466;SPS30;68933;49.726;9.226;2023-04-01T02:02:05;1.3;;1;0.7;;;;;;
79466;SPS30;68933;49.726;9.226;2023-04-01T02:04:18;1.3;;1;0.7;;;;;;
79466;SPS30;68933;49.726;9.226;2023-04-01T02:06:32;1.5;;1.1;0.8;;;;;;
79466;SPS30;68933;49.726;9.226;2023-04-01T02:08:45;1.5;;1.1;0.8;;;;;;
79466;SPS30;68933;49.726;9.226;2023-04-01T02:10:58;1.5;;1.2;0.9;;;;;;
79466;SPS30;68933;49.726;9.226;2023-04-01T02:13:12;1.5;;1.2;0.9;;;;;;
79466;SPS30;68933;49.726;9.226;2023-04-01T02:15:23;1.5;;1.2;0.9;;;;;;
79466;SPS30;68933;49.726;9.226;2023-04-01T02:17:37;1.4;;1.1;0.8;;;;;;
79466;SPS30;68933;49.726;9.226;2023-04-01T02:19:50;1.4;;1.1;0.8;;;;;;
79466;SPS30;68933;49.726;9.226;2023-04-01T02:22:03;1.3;;1;0.8;;;;;;
79466;SPS30;68933;49.726;9.226;2023-04-01T02:24:15;1.3;;1;0.8;;;;;;
79466;SPS30;68933;49.726;9.226;2023-04-01T02:26:28;1.4;;1;0.8;;;;;;
79466;SPS30;68933;49.726;9.226;2023-04-01T02:28:41;1.4;;1;0.8;;;;;;
79466;SPS30;68933;49.726;9.226;2023-04-01T02:30:54;1.4;;1;0.8;;;;;;
79466;SPS30;68933;49.726;9.226;2023-04-01T02:33:07;2.2;;1.6;1.2;;;;;;
79466;SPS30;68933;49.726;9.226;2023-04-01T02:35:20;2.2;;1.6;1.2;;;;;;
79466;SPS30;68933;49.726;9.226;2023-04-01T02:37:33;2.2;;1.6;1;;;;;;
79466;SPS30;68933;49.726;9.226;2023-04-01T02:39:46;2.2;;1.6;1;;;;;;
79466;SPS30;68933;49.726;9.226;2023-04-01T02:41:59;2.2;;1.6;1;;;;;;
79466;SPS30;68933;49.726;9.226;2023-04-01T02:44:13;1.3;;1;0.7;;;;;;
79466;SPS30;68933;49.726;9.226;2023-04-01T02:46:25;1.3;;1;0.7;;;;;;
79466;SPS30;68933;49.726;9.226;2023-04-01T02:48:38;1.4;;1.1;0.7;;;;;;
79466;SPS30;68933;49.726;9.226;2023-04-01T02:50:51;1.4;;1.1;0.7;;;;;;
79466;SPS30;68933;49.726;9.226;2023-04-01T02:53:04;2;;1.5;1;;;;;;
79466;SPS30;68933;49.726;9.226;2023-04-01T02:55:17;2;;1.5;1;;;;;;
79466;SPS30;68933;49.726;9.226;2023-04-01T02:57:30;2;;1.5;1;;;;;;
79466;SPS30;68933;49.726;9.226;2023-04-01T02:59:43;1.7;;1.2;0.8;;;;;;
79466;SPS30;68933;49.726;9.226;2023-04-01T03:01:56;1.7;;1.2;0.8;;;;;;
79466;SPS30;68933;49.726;9.226;2023-04-01T03:04:09;2.1;;1.6;1;;;;;;
79466;SPS30;68933;49.726;9.226;2023-04-01T03:06:22;2.1;;1.6;1;;;;;;
79466;SPS30;68933;49.726;9.226;2023-04-01T03:08:35;1.9;;1.4;0.9;;;;;;
79466;SPS30;68933;49.726;9.226;2023-04-01T03:10:48;1.9;;1.4;0.9;;;;;;
79466;SPS30;68933;49.726;9.226;2023-04-01T03:13:01;1.9;;1.4;0.9;;;;;;
79466;SPS30;68933;49.726;9.226;2023-04-01T03:15:14;2.2;;1.6;1;;;;;;
79466;SPS30;68933;49.726;9.226;2023-04-01T03:17:27;2.2;;1.6;1;;;;;;
79466;SPS30;68933;49.726;9.226;2023-04-01T03:19:40;1.8;;1.3;0.9;;;;;;
79466;SPS30;68933;49.726;9.226;2023-04-01T03:21:53;1.8;;1.3;0.9;;;;;;
79466;SPS30;68933;49.726;9.226;2023-04-01T03:24:06;3.1;;2.3;1.5;;;;;;
79466;SPS30;68933;49.726;9.226;2023-04-01T03:26:19;3.1;;2.3;1.5;;;;;;
79466;SPS30;68933;49.726;9.226;2023-04-01T03:28:32;2;;1.4;0.9;;;;;;
79466;SPS30;68933;49.726;9.226;2023-04-01T03:30:45;2;;1.4;0.9;;;;;;
79466;SPS30;68933;49.726;9.226;2023-04-01T03:32:58;2;;1.4;0.9;;;;;;
79466;SPS30;68933;49.726;9.226;2023-04-01T03:35:11;7.1;;5.4;3.8;;;;;;
79466;SPS30;68933;49.726;9.226;2023-04-01T03:37:24;7.1;;5.4;3.8;;;;;;
79466;SPS30;68933;49.726;9.226;2023-04-01T03:39:37;1.6;;1.2;0.8;;;;;;
79466;SPS30;68933;49.726;9.226;2023-04-01T03:41:50;1.6;;1.2;0.8;;;;;;
79466;SPS30;68933;49.726;9.226;2023-04-01T03:44:03;1.2;;0.9;0.6;;;;;;
79466;SPS30;68933;49.726;9.226;2023-04-01T03:46:17;1.2;;0.9;0.6;;;;;;
79466;SPS30;68933;49.726;9.226;2023-04-01T03:48:29;1.2;;0.9;0.6;;;;;;
79466;SPS30;68933;49.726;9.226;2023-04-01T03:50:42;1.2;;0.9;0.6;;;;;;
79466;SPS30;68933;49.726;9.226;2023-04-01T03:52:55;1.2;;0.9;0.6;;;;;;
79466;SPS30;68933;49.726;9.226;2023-04-01T03:55:08;1.9;;1.4;1;;;;;;
79466;SPS30;68933;49.726;9.226;2023-04-01T03:57:21;1.9;;1.4;1;;;;;;
79466;SPS30;68933;49.726;9.226;2023-04-01T03:59:34;2.4;;1.9;1.5;;;;;;
79466;SPS30;68933;49.726;9.226;2023-04-01T04:01:47;2.4;;1.9;1.5;;;;;;
79466;SPS30;68933;49.726;9.226;2023-04-01T04:04:00;1.3;;1.1;0.9;;;;;;
79466;SPS30;68933;49.726;9.226;2023-04-01T04:06:13;1.3;;1.1;0.9;;;;;;
79466;SPS30;68933;49.726;9.226;2023-04-01T04:08:26;1;;0.8;0.6;;;;;;
79466;SPS30;68933;49.726;9.226;2023-04-01T04:10:39;1;;0.8;0.6;;;;;;
79466;SPS30;68933;49.726;9.226;2023-04-01T04:12:52;1;;0.8;0.6;;;;;;
79466;SPS30;68933;49.726;9.226;2023-04-01T04:15:05;1;;0.8;0.6;;;;;;
79466;SPS30;68933;49.726;9.226;2023-04-01T04:17:18;1;;0.8;0.6;;;;;;
79466;SPS30;68933;49.726;9.226;2023-04-01T04:19:31;1.1;;0.9;0.6;;;;;;
79466;SPS30;68933;49.726;9.226;2023-04-01T04:21:44;1.1;;0.9;0.6;;;;;;
79466;SPS30;68933;49.726;9.226;2023-04-01T04:23:58;1.1;;0.9;0.6;;;;;;
79466;SPS30;68933;49.726;9.226;2023-04-01T04:26:11;1.1;;0.9;0.6;;;;;;
79466;SPS30;68933;49.726;9.226;2023-04-01T04:28:23;1;;0.8;0.6;;;;;;
79466;SPS30;68933;49.726;9.226;2023-04-01T04:30:36;1;;0.8;0.6;;;;;;
79466;SPS30;68933;49.726;9.226;2023-04-01T04:32:49;0.8;;0.7;0.5;;;;;;
79466;SPS30;68933;49.726;9.226;2023-04-01T04:35:02;0.8;;0.7;0.5;;;;;;
79466;SPS30;68933;49.726;9.226;2023-04-01T04:37:15;1;;0.8;0.6;;;;;;
79466;SPS30;68933;49.726;9.226;2023-04-01T04:39:28;1;;0.8;0.6;;;;;;
79466;SPS30;68933;49.726;9.226;2023-04-01T04:41:41;1;;0.8;0.6;;;;;;
79466;SPS30;68933;49.726;9.226;2023-04-01T04:43:55;1;;0.7;0.5;;;;;;
79466;SPS30;68933;49.726;9.226;2023-04-01T04:46:07;1;;0.7;0.5;;;;;;
79466;SPS30;68933;49.726;9.226;2023-04-01T04:48:20;3.5;;2.7;1.9;;;;;;
79466;SPS30;68933;49.726;9.226;2023-04-01T04:50:33;3.5;;2.7;1.9;;;;;;
79466;SPS30;68933;49.726;9.226;2023-04-01T04:52:46;3.5;;2.7;1.9;;;;;;
79466;SPS30;68933;49.726;9.226;2023-04-01T04:54:59;1.3;;1;0.7;;;;;;
79466;SPS30;68933;49.726;9.226;2023-04-01T04:57:12;1.3;;1;0.7;;;;;;
79466;SPS30;68933;49.726;9.226;2023-04-01T04:59:25;2.9;;2.2;1.6;;;;;;
79466;SPS30;68933;49.726;9.226;2023-04-01T05:01:38;2.9;;2.2;1.6;;;;;;
79466;SPS30;68933;49.726;9.226;2023-04-01T05:03:51;2.9;;2.2;1.6;;;;;;
79466;SPS30;68933;49.726;9.226;2023-04-01T05:06:05;2.6;;2.4;2.1;;;;;;
79466;SPS30;68933;49.726;9.226;2023-04-01T05:08:17;2.6;;2.4;2.1;;;;;;
79466;SPS30;68933;49.726;9.226;2023-04-01T05:10:30;1.2;;1;0.8;;;;;;
79466;SPS30;68933;49.726;9.226;2023-04-01T05:12:43;1.2;;1;0.8;;;;;;
79466;SPS30;68933;49.726;9.226;2023-04-01T05:14:56;0.9;;0.7;0.6;;;;;;
79466;SPS30;68933;49.726;9.226;2023-04-01T05:17:09;0.9;;0.7;0.6;;;;;;
79466;SPS30;68933;49.726;9.226;2023-04-01T05:19:22;0.9;;0.7;0.6;;;;;;
79466;SPS30;68933;49.726;9.226;2023-04-01T05:21:35;0.9;;0.8;0.6;;;;;;
79466;SPS30;68933;49.726;9.226;2023-04-01T05:23:48;0.9;;0.8;0.6;;;;;;
79466;SPS30;68933;49.726;9.226;2023-04-01T05:26:02;1.2;;1;0.8;;;;;;
79466;SPS30;68933;49.726;9.226;2023-04-01T05:28:14;1.2;;1;0.8;;;;;;
79466;SPS30;68933;49.726;9.226;2023-04-01T05:30:27;1.1;;0.9;0.7;;;;;;
79466;SPS30;68933;49.726;9.226;2023-04-01T05:32:40;1.1;;0.9;0.7;;;;;;
79466;SPS30;68933;49.726;9.226;2023-04-01T05:34:53;1.1;;0.9;0.7;;;;;;
79466;SPS30;68933;49.726;9.226;2023-04-01T05:37:06;1.1;;0.9;0.7;;;;;;
79466;SPS30;68933;49.726;9.226;2023-04-01T05:39:19;1.1;;0.9;0.7;;;;;;
79466;SPS30;68933;49.726;9.226;2023-04-01T05:41:34;1.2;;1;0.7;;;;;;
79466;SPS30;68933;49.726;9.226;2023-04-01T05:43:45;1.2;;1;0.7;;;;;;
79466;SPS30;68933;49.726;9.226;2023-04-01T05:45:58;1.2;;1;0.7;;;;;;
79466;SPS30;68933;49.726;9.226;2023-04-01T05:48:11;1.2;;1;0.8;;;;;;
79466;SPS30;68933;49.726;9.226;2023-04-01T05:50:24;1.2;;1;0.8;;;;;;
79466;SPS30;68933;49.726;9.226;2023-04-01T05:52:37;1.8;;1.4;1.1;;;;;;
79466;SPS30;68933;49.726;9.226;2023-04-01T05:54:50;1.8;;1.4;1.1;;;;;;
79466;SPS30;68933;49.726;9.226;2023-04-01T05:57:03;1.3;;1.1;0.8;;;;;;
79466;SPS30;68933;49.726;9.226;2023-04-01T05:59:16;1.3;;1.1;0.8;;;;;;
79466;SPS30;68933;49.726;9.226;2023-04-01T06:01:29;1.3;;1.1;0.8;;;;;;
79466;SPS30;68933;49.726;9.226;2023-04-01T06:03:42;1.2;;1;0.8;;;;;;
79466;SPS30;68933;49.726;9.226;2023-04-01T06:05:55;1.2;;1;0.8;;;;;;
79466;SPS30;68933;49.726;9.226;2023-04-01T06:08:09;0.9;;0.7;0.6;;;;;;
79466;SPS30;68933;49.726;9.226;2023-04-01T06:10:21;0.9;;0.7;0.6;;;;;;
79466;SPS30;68933;49.726;9.226;2023-04-01T06:12:40;1.1;;0.9;0.7;;;;;;
79466;SPS30;68933;49.726;9.226;2023-04-01T06:14:48;1.1;;0.9;0.7;;;;;;
79466;SPS30;68933;49.726;9.226;2023-04-01T06:17:04;1.1;;0.9;0.7;;;;;;
79466;SPS30;68933;49.726;9.226;2023-04-01T06:19:17;1;;0.8;0.6;;;;;;
79466;SPS30;68933;49.726;9.226;2023-04-01T06:21:30;1;;0.8;0.6;;;;;;
79466;SPS30;68933;49.726;9.226;2023-04-01T06:23:44;1.5;;1.1;0.8;;;;;;
79466;SPS30;68933;49.726;9.226;2023-04-01T06:25:58;1.5;;1.1;0.8;;;;;;
79466;SPS30;68933;49.726;9.226;2023-04-01T06:28:22;1.7;;1.3;1;;;;;;
79466;SPS30;68933;49.726;9.226;2023-04-01T06:30:24;1.7;;1.3;1;;;;;;
79466;SPS30;68933;49.726;9.226;2023-04-01T06:32:36;1.2;;0.9;0.7;;;;;;
79466;SPS30;68933;49.726;9.226;2023-04-01T06:34:48;1.2;;0.9;0.7;;;;;;
79466;SPS30;68933;49.726;9.226;2023-04-01T06:37:09;1.2;;0.9;0.7;;;;;;
79466;SPS30;68933;49.726;9.226;2023-04-01T06:39:15;2.7;;2.1;1.5;;;;;;
79466;SPS30;68933;49.726;9.226;2023-04-01T06:41:30;2.7;;2.1;1.5;;;;;;
79466;SPS30;68933;49.726;9.226;2023-04-01T06:43:38;2.1;;1.7;1.3;;;;;;
79466;SPS30;68933;49.726;9.226;2023-04-01T06:45:50;2.1;;1.7;1.3;;;;;;
79466;SPS30;68933;49.726;9.226;2023-04-01T06:48:06;5.8;;4.7;3.7;;;;;;
79466;SPS30;68933;49.726;9.226;2023-04-01T06:50:18;5.8;;4.7;3.7;;;;;;
79466;SPS30;68933;49.726;9.226;2023-04-01T06:52:30;5.8;;4.7;3.7;;;;;;
79466;SPS30;68933;49.726;9.226;2023-04-01T06:54:42;4.1;;3.3;2.5;;;;;;
79466;SPS30;68933;49.726;9.226;2023-04-01T06:56:54;4.1;;3.3;2.5;;;;;;
79466;SPS30;68933;49.726;9.226;2023-04-01T06:59:09;2.4;;1.9;1.4;;;;;;
79466;SPS30;68933;49.726;9.226;2023-04-01T07:01:21;2.4;;1.9;1.4;;;;;;
79466;SPS30;68933;49.726;9.226;2023-04-01T07:03:33;3.7;;2.9;2.1;;;;;;
79466;SPS30;68933;49.726;9.226;2023-04-01T07:05:46;3.7;;2.9;2.1;;;;;;
79466;SPS30;68933;49.726;9.226;2023-04-01T07:08:01;2.3;;1.9;1.4;;;;;;
79466;SPS30;68933;49.726;9.226;2023-04-01T07:10:13;2.3;;1.9;1.4;;;;;;
79466;SPS30;68933;49.726;9.226;2023-04-01T07:12:28;3.9;;3.2;2.5;;;;;;
79466;SPS30;68933;49.726;9.226;2023-04-01T07:14:39;3.9;;3.2;2.5;;;;;;
79466;SPS30;68933;49.726;9.226;2023-04-01T07:16:52;1.9;;1.6;1.3;;;;;;
79466;SPS30;68933;49.726;9.226;2023-04-01T07:19:05;1.9;;1.6;1.3;;;;;;
79466;SPS30;68933;49.726;9.226;2023-04-01T07:21:22;1.9;;1.6;1.3;;;;;;
79466;SPS30;68933;49.726;9.226;2023-04-01T07:23:31;1.8;;1.5;1.2;;;;;;
79466;SPS30;68933;49.726;9.226;2023-04-01T07:25:44;1.8;;1.5;1.2;;;;;;
79466;SPS30;68933;49.726;9.226;2023-04-01T07:27:56;1.6;;1.3;1.1;;;;;;
79466;SPS30;68933;49.726;9.226;2023-04-01T07:30:13;1.6;;1.3;1.1;;;;;;
79466;SPS30;68933;49.726;9.226;2023-04-01T07:32:25;0.9;;0.8;0.7;;;;;;
79466;SPS30;68933;49.726;9.226;2023-04-01T07:34:36;0.9;;0.8;0.7;;;;;;
79466;SPS30;68933;49.726;9.226;2023-04-01T07:36:48;1.2;;1.1;0.9;;;;;;
79466;SPS30;68933;49.726;9.226;2023-04-01T07:39:04;1.2;;1.1;0.9;;;;;;
79466;SPS30;68933;49.726;9.226;2023-04-01T07:41:16;1.4;;1.3;1.1;;;;;;
79466;SPS30;68933;49.726;9.226;2023-04-01T07:43:32;1.4;;1.3;1.1;;;;;;
79466;SPS30;68933;49.726;9.226;2023-04-01T07:45:41;0.7;;0.6;0.6;;;;;;
79466;SPS30;68933;49.726;9.226;2023-04-01T07:47:57;0.7;;0.6;0.6;;;;;;
79466;SPS30;68933;49.726;9.226;2023-04-01T07:50:10;0.7;;0.6;0.6;;;;;;
79466;SPS30;68933;49.726;9.226;2023-04-01T07:52:20;0.7;;0.6;0.6;;;;;;
79466;SPS30;68933;49.726;9.226;2023-04-01T07:54:35;0.7;;0.6;0.6;;;;;;
79466;SPS30;68933;49.726;9.226;2023-04-01T07:56:46;1.4;;1.2;1;;;;;;
79466;SPS30;68933;49.726;9.226;2023-04-01T07:59:00;1.4;;1.2;1;;;;;;
79466;SPS30;68933;49.726;9.226;2023-04-01T08:01:12;1.4;;1.2;1;;;;;;
79466;SPS30;68933;49.726;9.226;2023-04-01T08:03:28;0.6;;0.6;0.5;;;;;;
79466;SPS30;68933;49.726;9.226;2023-04-01T08:05:40;0.6;;0.6;0.5;;;;;;
79466;SPS30;68933;49.726;9.226;2023-04-01T08:07:51;0.7;;0.6;0.5;;;;;;
79466;SPS30;68933;49.726;9.226;2023-04-01T08:10:04;0.7;;0.6;0.5;;;;;;
79466;SPS30;68933;49.726;9.226;2023-04-01T08:12:20;0.7;;0.6;0.5;;;;;;
79466;SPS30;68933;49.726;9.226;2023-04-01T08:14:30;0.9;;0.8;0.7;;;;;;
79466;SPS30;68933;49.726;9.226;2023-04-01T08:16:44;0.9;;0.8;0.7;;;;;;
79466;SPS30;68933;49.726;9.226;2023-04-01T08:18:58;0.8;;0.7;0.6;;;;;;
79466;SPS30;68933;49.726;9.226;2023-04-01T08:21:10;0.8;;0.7;0.6;;;;;;
79466;SPS30;68933;49.726;9.226;2023-04-01T08:23:22;0.8;;0.7;0.6;;;;;;
79466;SPS30;68933;49.726;9.226;2023-04-01T08:25:34;0.6;;0.5;0.4;;;;;;
79466;SPS30;68933;49.726;9.226;2023-04-01T08:27:48;0.6;;0.5;0.4;;;;;;
79466;SPS30;68933;49.726;9.226;2023-04-01T08:30:02;0.8;;0.7;0.6;;;;;;
79466;SPS30;68933;49.726;9.226;2023-04-01T08:32:15;0.8;;0.7;0.6;;;;;;
79466;SPS30;68933;49.726;9.226;2023-04-01T08:34:28;0.8;;0.7;0.6;;;;;;
79466;SPS30;68933;49.726;9.226;2023-04-01T08:36:40;0.8;;0.7;0.6;;;;;;
79466;SPS30;68933;49.726;9.226;2023-04-01T08:38:53;0.8;;0.7;0.6;;;;;;
79466;SPS30;68933;49.726;9.226;2023-04-01T08:41:08;0.9;;0.8;0.7;;;;;;
79466;SPS30;68933;49.726;9.226;2023-04-01T08:43:21;0.9;;0.8;0.7;;;;;;
79466;SPS30;68933;49.726;9.226;2023-04-01T08:45:38;1;;0.8;0.7;;;;;;
79466;SPS30;68933;49.726;9.226;2023-04-01T08:47:54;1;;0.8;0.7;;;;;;
79466;SPS30;68933;49.726;9.226;2023-04-01T08:50:02;1;;0.8;0.7;;;;;;
79466;SPS30;68933;49.726;9.226;2023-04-01T08:52:14;1.3;;1.1;0.9;;;;;;
79466;SPS30;68933;49.726;9.226;2023-04-01T08:54:27;1.3;;1.1;0.9;;;;;;
79466;SPS30;68933;49.726;9.226;2023-04-01T08:56:37;1;;0.9;0.7;;;;;;
79466;SPS30;68933;49.726;9.226;2023-04-01T08:58:54;1;;0.9;0.7;;;;;;
79466;SPS30;68933;49.726;9.226;2023-04-01T09:01:08;1.6;;1.4;1.2;;;;;;
79466;SPS30;68933;49.726;9.226;2023-04-01T09:03:25;1.6;;1.4;1.2;;;;;;
79466;SPS30;68933;49.726;9.226;2023-04-01T09:05:35;1.6;;1.4;1.2;;;;;;
79466;SPS30;68933;49.726;9.226;2023-04-01T09:07:43;1.5;;1.3;1;;;;;;
79466;SPS30;68933;49.726;9.226;2023-04-01T09:09:59;1.5;;1.3;1;;;;;;
79466;SPS30;68933;49.726;9.226;2023-04-01T09:12:15;2.1;;1.8;1.4;;;;;;
79466;SPS30;68933;49.726;9.226;2023-04-01T09:14:27;2.1;;1.8;1.4;;;;;;
79466;SPS30;68933;49.726;9.226;2023-04-01T09:16:38;2.8;;2.4;1.9;;;;;;
79466;SPS30;68933;49.726;9.226;2023-04-01T09:18:55;2.8;;2.4;1.9;;;;;;
79466;SPS30;68933;49.726;9.226;2023-04-01T09:21:04;2.8;;2.4;1.9;;;;;;
79466;SPS30;68933;49.726;9.226;2023-04-01T09:23:17;0.9;;0.8;0.6;;;;;;
79466;SPS30;68933;49.726;9.226;2023-04-01T09:25:30;0.9;;0.8;0.6;;;;;;
79466;SPS30;68933;49.726;9.226;2023-04-01T09:27:40;0.9;;0.8;0.7;;;;;;
79466;SPS30;68933;49.726;9.226;2023-04-01T09:29:58;0.9;;0.8;0.7;;;;;;
79466;SPS30;68933;49.726;9.226;2023-04-01T09:32:10;0.9;;0.8;0.7;;;;;;
79466;SPS30;68933;49.726;9.226;2023-04-01T09:34:21;0.9;;0.8;0.7;;;;;;
79466;SPS30;68933;49.726;9.226;2023-04-01T09:36:34;0.9;;0.8;0.7;;;;;;
79466;SPS30;68933;49.726;9.226;2023-04-01T09:38:47;1.1;;1;0.9;;;;;;
79466;SPS30;68933;49.726;9.226;2023-04-01T09:40:57;1.1;;1;0.9;;;;;;
79466;SPS30;68933;49.726;9.226;2023-04-01T09:43:16;1.2;;1.2;1.1;;;;;;
79466;SPS30;68933;49.726;9.226;2023-04-01T09:45:27;1.2;;1.2;1.1;;;;;;
79466;SPS30;68933;49.726;9.226;2023-04-01T09:47:41;1.1;;1;1;;;;;;
79466;SPS30;68933;49.726;9.226;2023-04-01T09:49:55;1.1;;1;1;;;;;;
79466;SPS30;68933;49.726;9.226;2023-04-01T09:52:05;1.1;;1;1;;;;;;
79466;SPS30;68933;49.726;9.226;2023-04-01T09:54:19;1.8;;1.7;1.5;;;;;;
79466;SPS30;68933;49.726;9.226;2023-04-01T09:59:15;1.1;;1.1;1;;;;;;
79466;SPS30;68933;49.726;9.226;2023-04-01T10:01:01;1.1;;1.1;1;;;;;;
79466;SPS30;68933;49.726;9.226;2023-04-01T10:03:45;1.1;;1;1;;;;;;
79466;SPS30;68933;49.726;9.226;2023-04-01T10:06:21;1.1;;1;1;;;;;;
79466;SPS30;68933;49.726;9.226;2023-04-01T10:07:42;0.9;;0.9;0.8;;;;;;
79466;SPS30;68933;49.726;9.226;2023-04-01T10:11:15;0.9;;0.9;0.8;;;;;;
79466;SPS30;68933;49.726;9.226;2023-04-01T10:12:02;0.9;;0.9;0.8;;;;;;
79466;SPS30;68933;49.726;9.226;2023-04-01T10:14:18;0.9;;0.9;0.8;;;;;;
79466;SPS30;68933;49.726;9.226;2023-04-01T10:16:26;0.9;;0.9;0.8;;;;;;
79466;SPS30;68933;49.726;9.226;2023-04-01T10:21:25;1.8;;1.8;1.7;;;;;;
79466;SPS30;68933;49.726;9.226;2023-04-01T10:23:21;0.8;;0.7;0.7;;;;;;
79466;SPS30;68933;49.726;9.226;2023-04-01T10:25:19;0.8;;0.7;0.7;;;;;;
79466;SPS30;68933;49.726;9.226;2023-04-01T10:27:34;0.7;;0.7;0.7;;;;;;
79466;SPS30;68933;49.726;9.226;2023-04-01T10:29:48;0.7;;0.7;0.7;;;;;;
79466;SPS30;68933;49.726;9.226;2023-04-01T10:32:00;0.6;;0.6;0.6;;;;;;
79466;SPS30;68933;49.726;9.226;2023-04-01T10:34:13;0.6;;0.6;0.6;;;;;;
79466;SPS30;68933;49.726;9.226;2023-04-01T10:36:32;0.6;;0.6;0.6;;;;;;
79466;SPS30;68933;49.726;9.226;2023-04-01T10:38:47;1;;1;0.9;;;;;;
79466;SPS30;68933;49.726;9.226;2023-04-01T10:40:52;1;;1;0.9;;;;;;
79466;SPS30;68933;49.726;9.226;2023-04-01T10:43:05;0.4;;0.4;0.3;;;;;;
79466;SPS30;68933;49.726;9.226;2023-04-01T10:47:50;0.5;;0.5;0.4;;;;;;
79466;SPS30;68933;49.726;9.226;2023-04-01T10:49:47;0.5;;0.5;0.4;;;;;;
79466;SPS30;68933;49.726;9.226;2023-04-01T10:52:04;0.6;;0.6;0.5;;;;;;
79466;SPS30;68933;49.726;9.226;2023-04-01T10:54:24;0.6;;0.6;0.5;;;;;;
79466;SPS30;68933;49.726;9.226;2023-04-01T10:56:34;1.6;;1.5;1.4;;;;;;
79466;SPS30;68933;49.726;9.226;2023-04-01T10:59:09;1.6;;1.5;1.4;;;;;;
79466;SPS30;68933;49.726;9.226;2023-04-01T11:00:57;1.1;;1.1;1;;;;;;
79466;SPS30;68933;49.726;9.226;2023-04-01T11:03:06;1.1;;1.1;1;;;;;;
79466;SPS30;68933;49.726;9.226;2023-04-01T11:05:49;1.1;;1.1;1;;;;;;
79466;SPS30;68933;49.726;9.226;2023-04-01T11:07:30;0.9;;0.9;0.8;;;;;;
79466;SPS30;68933;49.726;9.226;2023-04-01T11:09:44;0.9;;0.9;0.8;;;;;;
79466;SPS30;68933;49.726;9.226;2023-04-01T11:11:55;1.1;;1.1;1;;;;;;
79466;SPS30;68933;49.726;9.226;2023-04-01T11:14:42;1.1;;1.1;1;;;;;;
79466;SPS30;68933;49.726;9.226;2023-04-01T11:16:35;1.1;;1.1;1;;;;;;
79466;SPS30;68933;49.726;9.226;2023-04-01T11:18:38;0.8;;0.8;0.7;;;;;;
79466;SPS30;68933;49.726;9.226;2023-04-01T11:20:45;0.8;;0.8;0.7;;;;;;
79466;SPS30;68933;49.726;9.226;2023-04-01T11:23:05;0.9;;0.9;0.8;;;;;;
79466;SPS30;68933;49.726;9.226;2023-04-01T11:25:11;0.9;;0.9;0.8;;;;;;
79466;SPS30;68933;49.726;9.226;2023-04-01T11:27:25;0.9;;0.9;0.8;;;;;;
79466;SPS30;68933;49.726;9.226;2023-04-01T11:29:36;0.7;;0.7;0.6;;;;;;
79466;SPS30;68933;49.726;9.226;2023-04-01T11:31:50;0.7;;0.7;0.6;;;;;;
79466;SPS30;68933;49.726;9.226;2023-04-01T11:34:01;2.3;;2.3;2.1;;;;;;
79466;SPS30;68933;49.726;9.226;2023-04-01T11:36:16;2.3;;2.3;2.1;;;;;;
79466;SPS30;68933;49.726;9.226;2023-04-01T11:38:29;0.7;;0.7;0.6;;;;;;
79466;SPS30;68933;49.726;9.226;2023-04-01T11:40:40;0.7;;0.7;0.6;;;;;;
79466;SPS30;68933;49.726;9.226;2023-04-01T11:42:52;0.7;;0.7;0.6;;;;;;
79466;SPS30;68933;49.726;9.226;2023-04-01T11:45:10;0.7;;0.7;0.7;;;;;;
79466;SPS30;68933;49.726;9.226;2023-04-01T11:47:21;0.7;;0.7;0.7;;;;;;
79466;SPS30;68933;49.726;9.226;2023-04-01T11:49:36;1.3;;1.3;1.2;;;;;;
79466;SPS30;68933;49.726;9.226;2023-04-01T11:51:49;1.3;;1.3;1.2;;;;;;
79466;SPS30;68933;49.726;9.226;2023-04-01T11:53:57;1;;1;0.9;;;;;;
79466;SPS30;68933;49.726;9.226;2023-04-01T11:56:12;1;;1;0.9;;;;;;
79466;SPS30;68933;49.726;9.226;2023-04-01T11:58:27;1;;1;0.9;;;;;;
79466;SPS30;68933;49.726;9.226;2023-04-01T12:00:42;0.5;;0.5;0.4;;;;;;
79466;SPS30;68933;49.726;9.226;2023-04-01T12:02:51;0.5;;0.5;0.4;;;;;;
79466;SPS30;68933;49.726;9.226;2023-04-01T12:05:08;0.4;;0.4;0.4;;;;;;
79466;SPS30;68933;49.726;9.226;2023-04-01T12:07:17;0.4;;0.4;0.4;;;;;;
79466;SPS30;68933;49.726;9.226;2023-04-01T12:09:29;0.7;;0.7;0.6;;;;;;
79466;SPS30;68933;49.726;9.226;2023-04-01T12:11:41;0.7;;0.7;0.6;;;;;;
79466;SPS30;68933;49.726;9.226;2023-04-01T12:13:53;0.7;;0.7;0.6;;;;;;
79466;SPS30;68933;49.726;9.226;2023-04-01T12:16:11;1.1;;1.1;1;;;;;;
79466;SPS30;68933;49.726;9.226;2023-04-01T12:18:20;1.1;;1.1;1;;;;;;
79466;SPS30;68933;49.726;9.226;2023-04-01T12:20:36;0.8;;0.8;0.8;;;;;;
79466;SPS30;68933;49.726;9.226;2023-04-01T12:22:46;0.8;;0.8;0.8;;;;;;
79466;SPS30;68933;49.726;9.226;2023-04-01T12:25:00;6.1;;6;5.7;;;;;;
79466;SPS30;68933;49.726;9.226;2023-04-01T12:27:14;6.1;;6;5.7;;;;;;
79466;SPS30;68933;49.726;9.226;2023-04-01T12:29:35;6.1;;6;5.7;;;;;;
79466;SPS30;68933;49.726;9.226;2023-04-01T12:31:38;1.6;;1.6;1.5;;;;;;
79466;SPS30;68933;49.726;9.226;2023-04-01T12:33:52;1.6;;1.6;1.5;;;;;;
79466;SPS30;68933;49.726;9.226;2023-04-01T12:36:06;1.4;;1.4;1.3;;;;;;
79466;SPS30;68933;49.726;9.226;2023-04-01T12:38:19;1.4;;1.4;1.3;;;;;;
79466;SPS30;68933;49.726;9.226;2023-04-01T12:40:39;0.9;;0.9;0.8;;;;;;
79466;SPS30;68933;49.726;9.226;2023-04-01T12:42:51;0.9;;0.9;0.8;;;;;;
79466;SPS30;68933;49.726;9.226;2023-04-01T12:44:58;0.9;;0.9;0.8;;;;;;
79466;SPS30;68933;49.726;9.226;2023-04-01T12:47:13;4.5;;4.5;4.2;;;;;;
79466;SPS30;68933;49.726;9.226;2023-04-01T12:49:25;4.5;;4.5;4.2;;;;;;